Time;durP1;ratioP1;P1;durP2;ratioP2;P2;SDS_P1;SDS_P2;PMS_P1;PMS_P2;Temp;Humidity;BMP_temperature;BMP_pressure;BME280_temperature;BME280_humidity;BME280_pressure;Samples;Min_cycle;Max_cycle;Signal;HPM_P1;HPM_P2
2021/05/16 00:02:21;;;;;;;5.00;1.60;;;16.70;70.80;;;;;;4993722;28;20029;-68
2021/05/16 00:04:46;;;;;;;5.07;1.33;;;16.70;70.80;;;;;;4993057;28;20026;-68
2021/05/16 00:07:12;;;;;;;3.67;1.20;;;16.70;70.80;;;;;;4993352;28;20071;-67
2021/05/16 00:09:38;;;;;;;4.50;1.50;;;16.70;70.80;;;;;;4993338;28;20056;-68
2021/05/16 00:12:06;;;;;;;3.30;1.10;;;16.70;70.70;;;;;;5011253;28;20018;-69
2021/05/16 00:14:32;;;;;;;4.00;1.35;;;16.70;70.80;;;;;;5010370;28;20057;-68
2021/05/16 00:16:58;;;;;;;3.55;1.33;;;16.70;70.80;;;;;;5024656;28;20420;-69
2021/05/16 00:19:23;;;;;;;4.68;1.63;;;16.70;70.80;;;;;;5034821;28;20024;-69
2021/05/16 00:21:49;;;;;;;4.93;1.50;;;16.70;70.80;;;;;;5018192;28;20025;-67
2021/05/16 00:24:15;;;;;;;4.38;1.40;;;16.60;70.70;;;;;;5013837;28;20489;-68
2021/05/16 00:26:41;;;;;;;4.15;1.00;;;16.70;70.70;;;;;;4996520;28;20088;-68
2021/05/16 00:29:06;;;;;;;3.92;1.20;;;16.70;70.70;;;;;;4995762;28;20056;-68
2021/05/16 00:31:32;;;;;;;4.85;1.30;;;16.70;70.80;;;;;;5014112;28;20045;-70
2021/05/16 00:33:58;;;;;;;6.22;1.50;;;16.70;70.80;;;;;;5014170;28;20022;-70
2021/05/16 00:36:24;;;;;;;3.97;1.20;;;16.70;70.70;;;;;;5014540;28;20048;-68
2021/05/16 00:38:49;;;;;;;2.95;1.10;;;16.70;70.70;;;;;;5013979;28;20026;-69
2021/05/16 00:41:15;;;;;;;3.17;1.13;;;16.70;70.80;;;;;;5014126;28;20022;-69
2021/05/16 00:43:41;;;;;;;4.28;1.23;;;16.60;70.70;;;;;;5013450;28;20084;-70
2021/05/16 00:46:09;;;;;;;4.07;1.15;;;16.60;70.70;;;;;;4996264;28;20073;-68
2021/05/16 00:48:38;;;;;;;6.43;1.58;;;16.60;70.70;;;;;;5013877;28;20165;-68
2021/05/16 00:51:04;;;;;;;3.67;1.27;;;16.60;70.80;;;;;;5013430;28;20105;-69
2021/05/16 00:53:30;;;;;;;4.43;1.50;;;16.60;70.80;;;;;;5007626;28;20113;-68
2021/05/16 00:55:57;;;;;;;4.13;1.15;;;16.60;70.80;;;;;;4996056;28;20097;-69
2021/05/16 00:58:23;;;;;;;3.13;1.30;;;16.60;70.80;;;;;;5013326;28;20073;-68
2021/05/16 01:00:49;;;;;;;3.08;1.42;;;16.60;70.80;;;;;;4996295;28;20026;-68
2021/05/16 01:03:15;;;;;;;2.47;1.23;;;16.60;70.80;;;;;;4995804;28;20026;-69
2021/05/16 01:05:44;;;;;;;3.53;1.20;;;16.60;70.80;;;;;;4995477;28;20539;-69
2021/05/16 01:08:11;;;;;;;3.42;1.40;;;16.60;70.80;;;;;;5013518;28;20489;-67
2021/05/16 01:10:37;;;;;;;3.28;1.23;;;16.60;70.80;;;;;;4995900;28;20493;-69
2021/05/16 01:13:05;;;;;;;3.47;1.23;;;16.60;70.80;;;;;;5013596;28;20038;-69
2021/05/16 01:15:33;;;;;;;5.45;1.50;;;16.60;70.70;;;;;;5012647;28;20022;-68
2021/05/16 01:17:59;;;;;;;4.80;1.60;;;16.60;70.80;;;;;;5012546;28;20022;-68
2021/05/16 01:20:38;;;;;;;3.08;1.30;;;16.60;70.70;;;;;;5013304;28;20018;-68
2021/05/16 01:23:06;;;;;;;4.60;1.17;;;16.50;70.70;;;;;;5012649;28;20026;-69
2021/05/16 01:25:36;;;;;;;3.60;1.20;;;16.50;70.60;;;;;;5012871;28;20022;-67
2021/05/16 01:28:03;;;;;;;4.72;1.50;;;16.50;70.60;;;;;;5012800;28;20386;-71
2021/05/16 01:30:29;;;;;;;3.05;1.10;;;16.50;70.60;;;;;;4994835;28;20497;-68
2021/05/16 01:32:55;;;;;;;3.08;1.20;;;16.50;70.60;;;;;;4995225;28;20053;-68
2021/05/16 01:35:22;;;;;;;4.40;1.25;;;16.50;70.70;;;;;;5012720;28;20053;-68
2021/05/16 01:37:49;;;;;;;5.65;1.20;;;16.50;70.70;;;;;;5012059;28;20436;-68
2021/05/16 01:40:16;;;;;;;2.45;1.17;;;16.50;70.80;;;;;;5012977;28;20497;-69
2021/05/16 01:42:47;;;;;;;2.80;1.10;;;16.50;70.70;;;;;;4995414;28;20034;-68
2021/05/16 01:45:15;;;;;;;4.45;1.63;;;16.50;70.70;;;;;;5012381;28;20033;-69
2021/05/16 01:47:41;;;;;;;3.13;1.30;;;16.50;70.70;;;;;;4995160;28;20524;-68
2021/05/16 01:50:13;;;;;;;4.82;1.50;;;16.40;70.70;;;;;;4994690;28;20512;-68
2021/05/16 01:52:39;;;;;;;;;;;16.50;70.80;;;;;;4994954;28;20417;-68
2021/05/16 01:55:05;;;;;;;3.67;1.75;;;16.40;70.70;;;;;;5012286;28;20013;-68
2021/05/16 01:57:31;;;;;;;3.10;1.17;;;16.40;70.70;;;;;;4995082;28;20021;-67
2021/05/16 01:59:58;;;;;;;3.22;1.40;;;16.50;70.70;;;;;;4993489;28;20145;-68
2021/05/16 02:02:24;;;;;;;2.92;1.30;;;16.40;70.80;;;;;;5012290;28;20084;-68
2021/05/16 02:04:51;;;;;;;2.58;1.20;;;16.40;70.80;;;;;;5012306;28;20041;-67
2021/05/16 02:07:17;;;;;;;3.13;1.20;;;16.40;70.90;;;;;;4994958;28;20080;-70
2021/05/16 02:09:43;;;;;;;4.00;1.45;;;16.40;70.90;;;;;;5012350;28;20026;-69
2021/05/16 02:12:09;;;;;;;3.60;1.50;;;16.40;70.90;;;;;;5012227;28;20113;-68
2021/05/16 02:14:35;;;;;;;3.75;1.17;;;16.40;70.90;;;;;;5011560;28;20117;-69
2021/05/16 02:17:02;;;;;;;3.05;1.40;;;16.40;70.90;;;;;;4992823;28;20094;-67
2021/05/16 02:19:28;;;;;;;5.05;1.50;;;16.40;71.00;;;;;;5005998;28;20076;-68
2021/05/16 02:21:54;;;;;;;4.32;1.50;;;16.40;71.00;;;;;;5011801;28;20421;-70
2021/05/16 02:24:20;;;;;;;3.85;1.48;;;16.40;70.90;;;;;;4994178;28;20030;-68
2021/05/16 02:26:47;;;;;;;3.78;1.30;;;16.40;71.00;;;;;;5012074;28;20040;-69
2021/05/16 02:29:13;;;;;;;3.47;1.30;;;16.40;70.90;;;;;;4993297;28;20026;-68
2021/05/16 02:31:38;;;;;;;3.45;1.40;;;16.40;71.00;;;;;;4994217;28;20030;-69
2021/05/16 02:34:05;;;;;;;4.65;1.40;;;16.40;71.10;;;;;;4994094;28;20087;-70
2021/05/16 02:36:31;;;;;;;2.78;1.63;;;16.40;71.00;;;;;;4994622;28;20378;-69
2021/05/16 02:38:57;;;;;;;5.85;1.80;;;16.40;71.10;;;;;;5011817;28;20021;-69
2021/05/16 02:41:23;;;;;;;3.13;1.48;;;16.40;71.10;;;;;;4994136;28;20048;-68
2021/05/16 02:43:49;;;;;;;3.78;1.40;;;16.30;71.10;;;;;;4993704;28;20485;-70
2021/05/16 02:46:14;;;;;;;3.42;1.65;;;16.40;71.10;;;;;;4994274;28;20037;-68
2021/05/16 02:48:40;;;;;;;3.60;1.60;;;16.40;71.10;;;;;;5011588;28;20512;-68
2021/05/16 02:51:06;;;;;;;3.28;1.30;;;16.40;71.00;;;;;;5011442;28;20029;-69
2021/05/16 02:53:33;;;;;;;4.18;1.67;;;16.30;71.10;;;;;;5011432;28;20033;-70
2021/05/16 02:55:59;;;;;;;4.90;1.80;;;16.40;71.10;;;;;;5010835;28;20026;-67
2021/05/16 02:58:24;;;;;;;5.18;1.70;;;16.40;71.10;;;;;;4993671;28;20111;-69
2021/05/16 03:00:50;;;;;;;5.10;1.65;;;16.40;71.00;;;;;;5011670;28;20036;-68
2021/05/16 03:03:15;;;;;;;5.18;1.45;;;16.40;71.00;;;;;;5011509;28;20041;-68
2021/05/16 03:05:41;;;;;;;3.83;1.58;;;16.30;71.00;;;;;;5011370;28;20381;-68
2021/05/16 03:08:07;;;;;;;4.05;1.48;;;16.30;71.20;;;;;;5011848;28;20030;-69
2021/05/16 03:10:32;;;;;;;3.63;1.30;;;16.30;71.30;;;;;;5011580;28;20524;-68
2021/05/16 03:12:58;;;;;;;4.32;1.50;;;16.30;71.20;;;;;;4993938;28;20030;-69
2021/05/16 03:15:23;;;;;;;4.95;1.67;;;16.30;71.20;;;;;;4993211;28;20034;-69
2021/05/16 03:17:49;;;;;;;3.92;1.65;;;16.30;71.20;;;;;;5010850;28;20026;-70
2021/05/16 03:20:15;;;;;;;4.03;1.63;;;16.40;71.30;;;;;;5011492;28;20519;-68
2021/05/16 03:22:41;;;;;;;4.70;1.70;;;16.30;71.20;;;;;;4993871;28;20022;-68
2021/05/16 03:25:09;;;;;;;5.20;1.67;;;16.30;71.20;;;;;;4992785;28;20026;-68
2021/05/16 03:27:35;;;;;;;4.50;1.50;;;16.30;71.20;;;;;;4993357;28;20022;-69
2021/05/16 03:30:01;;;;;;;3.97;1.55;;;16.30;71.20;;;;;;4993972;28;20502;-69
2021/05/16 03:32:27;;;;;;;4.40;1.85;;;16.30;71.30;;;;;;5010816;28;20034;-69
2021/05/16 03:34:52;;;;;;;3.38;1.40;;;16.30;71.30;;;;;;5010911;28;20041;-68
2021/05/16 03:37:19;;;;;;;4.10;1.52;;;16.30;71.20;;;;;;5011316;28;20038;-68
2021/05/16 03:39:44;;;;;;;5.65;1.65;;;16.30;71.20;;;;;;4993649;28;20018;-68
2021/05/16 03:42:10;;;;;;;3.35;1.55;;;16.30;71.20;;;;;;5011369;28;20030;-68
2021/05/16 03:44:35;;;;;;;9.90;1.73;;;16.30;71.20;;;;;;4993291;28;20469;-68
2021/05/16 03:47:01;;;;;;;6.03;1.67;;;16.30;71.20;;;;;;5011125;28;20450;-69
2021/05/16 03:49:27;;;;;;;2.90;1.48;;;16.30;71.20;;;;;;4993580;28;20489;-69
2021/05/16 03:51:52;;;;;;;4.07;1.42;;;16.30;71.30;;;;;;4993824;28;20485;-68
2021/05/16 03:54:18;;;;;;;5.55;2.10;;;16.30;71.20;;;;;;5014269;28;20041;-69
2021/05/16 03:56:44;;;;;;;4.40;1.60;;;16.30;71.30;;;;;;5015125;28;20076;-70
2021/05/16 03:59:10;;;;;;;4.97;1.70;;;16.30;71.40;;;;;;5015087;28;20028;-69
2021/05/16 04:01:36;;;;;;;4.10;1.95;;;16.20;71.40;;;;;;4996945;28;20032;-68
2021/05/16 04:04:02;;;;;;;4.63;1.85;;;16.30;71.40;;;;;;4996899;28;20026;-68
2021/05/16 04:06:28;;;;;;;5.05;1.80;;;16.30;71.40;;;;;;5014817;28;20030;-69
2021/05/16 04:08:54;;;;;;;5.43;1.63;;;16.30;71.40;;;;;;5014671;28;20396;-69
2021/05/16 04:11:19;;;;;;;5.43;1.90;;;16.30;71.40;;;;;;5014757;28;20061;-68
2021/05/16 04:13:45;;;;;;;5.18;1.75;;;16.30;71.30;;;;;;4996171;28;20060;-69
2021/05/16 04:16:10;;;;;;;5.40;1.75;;;16.30;71.30;;;;;;4996468;28;20045;-69
2021/05/16 04:18:36;;;;;;;4.75;2.03;;;16.30;71.40;;;;;;5014774;28;20026;-69
2021/05/16 04:21:03;;;;;;;4.13;1.60;;;16.30;71.30;;;;;;4996625;28;20501;-69
2021/05/16 04:23:28;;;;;;;5.00;1.90;;;16.30;71.40;;;;;;5014254;28;20069;-69
2021/05/16 04:25:54;;;;;;;4.80;2.00;;;16.20;71.40;;;;;;5013969;28;20116;-69
2021/05/16 04:28:20;;;;;;;5.10;1.90;;;16.20;71.30;;;;;;5014311;28;20025;-71
2021/05/16 04:30:45;;;;;;;4.40;2.08;;;16.20;71.20;;;;;;5014030;28;20029;-69
2021/05/16 04:33:11;;;;;;;3.67;1.83;;;16.30;71.40;;;;;;5013821;28;20370;-68
2021/05/16 04:35:36;;;;;;;6.07;2.00;;;16.30;71.30;;;;;;4996398;28;20054;-69
2021/05/16 04:38:02;;;;;;;4.95;1.60;;;16.20;71.30;;;;;;5014260;28;20030;-68
2021/05/16 04:40:28;;;;;;;4.95;2.10;;;16.20;71.70;;;;;;4996528;28;20033;-69
2021/05/16 04:42:55;;;;;;;5.53;2.30;;;16.20;71.30;;;;;;5014261;28;20092;-69
2021/05/16 04:45:21;;;;;;;5.38;2.00;;;16.20;71.20;;;;;;5013141;28;20021;-70
2021/05/16 04:47:46;;;;;;;4.85;2.03;;;16.20;71.30;;;;;;4996324;28;20576;-69
2021/05/16 04:50:15;;;;;;;4.68;2.17;;;16.20;71.90;;;;;;5013701;28;20144;-69
2021/05/16 04:52:40;;;;;;;5.22;2.15;;;16.20;71.20;;;;;;5013730;28;20057;-69
2021/05/16 04:55:06;;;;;;;4.00;1.70;;;16.20;71.80;;;;;;4995636;28;20527;-68
2021/05/16 04:57:32;;;;;;;4.68;1.92;;;16.20;71.20;;;;;;4994450;28;20062;-70
2021/05/16 04:59:57;;;;;;;4.43;1.80;;;16.20;71.30;;;;;;4998026;28;20045;-68
2021/05/16 05:02:23;;;;;;;5.97;2.40;;;16.20;71.20;;;;;;4995987;28;20025;-68
2021/05/16 05:04:50;;;;;;;5.82;2.00;;;16.20;71.30;;;;;;5012151;28;20481;-68
2021/05/16 05:07:16;;;;;;;5.80;2.05;;;16.20;71.20;;;;;;5013830;28;20112;-68
2021/05/16 05:09:42;;;;;;;7.13;2.40;;;16.20;71.20;;;;;;4995996;28;20112;-69
2021/05/16 05:12:08;;;;;;;3.78;1.70;;;16.20;71.30;;;;;;5013577;28;20030;-69
2021/05/16 05:14:33;;;;;;;5.90;2.00;;;16.20;71.20;;;;;;4995763;28;20497;-69
2021/05/16 05:16:59;;;;;;;4.32;1.75;;;16.20;71.30;;;;;;4995042;28;20080;-69
2021/05/16 05:19:25;;;;;;;5.57;1.92;;;16.20;71.20;;;;;;4995931;28;20033;-69
2021/05/16 05:21:51;;;;;;;5.28;1.70;;;16.20;71.20;;;;;;5012690;28;20022;-68
2021/05/16 05:24:16;;;;;;;4.03;1.52;;;16.20;71.00;;;;;;5012829;28;20030;-69
2021/05/16 05:26:42;;;;;;;4.28;1.73;;;16.20;71.00;;;;;;5013422;28;20378;-70
2021/05/16 05:29:07;;;;;;;4.30;1.60;;;16.30;71.10;;;;;;4995073;28;20452;-68
2021/05/16 05:31:33;;;;;;;5.50;1.92;;;16.30;71.00;;;;;;5012896;28;20036;-69
2021/05/16 05:33:58;;;;;;;5.07;2.00;;;16.20;70.90;;;;;;4995463;28;20029;-68
2021/05/16 05:36:24;;;;;;;4.32;2.10;;;16.30;71.20;;;;;;5012703;28;20042;-68
2021/05/16 05:38:50;;;;;;;6.65;1.92;;;16.30;70.90;;;;;;5003329;28;20114;-69
2021/05/16 05:41:15;;;;;;;5.63;1.88;;;16.30;71.30;;;;;;5018523;28;20529;-69
2021/05/16 05:43:41;;;;;;;5.78;2.10;;;16.30;71.00;;;;;;4996036;28;20029;-69
2021/05/16 05:46:06;;;;;;;6.05;2.15;;;16.30;71.10;;;;;;5012736;28;20095;-68
2021/05/16 05:48:32;;;;;;;6.28;2.17;;;16.30;71.10;;;;;;5030686;28;20159;-68
2021/05/16 05:50:58;;;;;;;4.95;2.03;;;16.30;71.10;;;;;;5032743;28;20025;-68
2021/05/16 05:53:24;;;;;;;7.45;2.30;;;16.40;71.00;;;;;;5026545;28;20076;-69
2021/05/16 05:55:50;;;;;;;5.75;1.92;;;16.40;70.90;;;;;;5012500;28;20057;-70
2021/05/16 05:58:16;;;;;;;5.82;2.05;;;16.40;71.00;;;;;;4995304;28;20663;-69
2021/05/16 06:00:42;;;;;;;4.75;2.00;;;16.30;70.80;;;;;;5017373;28;20029;-69
2021/05/16 06:03:07;;;;;;;6.90;2.20;;;16.40;71.00;;;;;;4995236;28;20489;-69
2021/05/16 06:05:33;;;;;;;6.28;1.85;;;16.40;71.00;;;;;;5012367;28;20432;-69
2021/05/16 06:07:59;;;;;;;5.75;1.75;;;16.40;70.80;;;;;;5012609;28;20026;-69
2021/05/16 06:10:25;;;;;;;5.70;1.88;;;16.40;70.70;;;;;;4994898;28;20034;-68
2021/05/16 06:12:52;;;;;;;6.43;2.28;;;16.50;70.60;;;;;;5012502;28;20026;-69
2021/05/16 06:15:18;;;;;;;5.57;2.03;;;16.50;70.30;;;;;;5011440;28;20080;-69
2021/05/16 06:17:43;;;;;;;4.78;1.85;;;16.60;70.20;;;;;;4994751;28;20030;-69
2021/05/16 06:20:09;;;;;;;6.43;2.00;;;16.70;69.90;;;;;;5012462;28;20091;-69
2021/05/16 06:22:35;;;;;;;5.80;1.80;;;16.60;69.70;;;;;;4981861;28;20033;-69
2021/05/16 06:25:00;;;;;;;4.63;1.67;;;16.60;69.70;;;;;;4992429;28;20030;-69
2021/05/16 06:27:26;;;;;;;6.70;2.08;;;16.60;69.90;;;;;;4992598;28;20048;-70
2021/05/16 06:29:51;;;;;;;4.50;1.70;;;16.60;69.90;;;;;;4982495;28;20524;-68
2021/05/16 06:32:18;;;;;;;5.47;1.90;;;16.60;70.00;;;;;;4994672;28;20022;-68
2021/05/16 06:34:43;;;;;;;4.97;1.92;;;16.60;69.90;;;;;;5011917;28;20030;-68
2021/05/16 06:37:09;;;;;;;5.85;1.90;;;16.60;69.90;;;;;;5029824;28;20060;-69
2021/05/16 06:39:34;;;;;;;6.20;2.00;;;16.60;70.00;;;;;;5014408;28;20044;-68
2021/05/16 06:42:00;;;;;;;4.68;1.70;;;16.60;69.90;;;;;;5014049;28;20022;-69
2021/05/16 06:44:26;;;;;;;5.07;1.63;;;16.60;69.90;;;;;;5007425;28;20120;-68
2021/05/16 06:46:52;;;;;;;8.77;2.25;;;16.70;69.70;;;;;;4994354;28;20525;-68
2021/05/16 06:49:18;;;;;;;8.50;2.28;;;16.70;69.50;;;;;;5011966;28;20022;-68
2021/05/16 06:51:44;;;;;;;5.28;1.90;;;16.80;69.30;;;;;;5012006;28;20138;-69
2021/05/16 06:54:09;;;;;;;5.95;1.67;;;16.80;69.00;;;;;;4993530;28;20072;-70
2021/05/16 06:56:37;;;;;;;6.40;1.90;;;16.80;69.10;;;;;;4993112;28;20033;-69
2021/05/16 06:59:04;;;;;;;6.63;2.10;;;16.80;69.40;;;;;;5010891;28;20026;-69
2021/05/16 07:01:29;;;;;;;8.27;2.22;;;16.80;69.70;;;;;;4994529;28;20046;-68
2021/05/16 07:03:55;;;;;;;5.40;2.20;;;16.80;69.90;;;;;;4995671;28;20049;-68
2021/05/16 07:06:20;;;;;;;6.25;1.92;;;16.80;70.10;;;;;;5011487;28;20032;-68
2021/05/16 07:08:47;;;;;;;7.47;2.00;;;16.80;70.20;;;;;;5029594;28;20463;-68
2021/05/16 07:11:13;;;;;;;8.13;2.15;;;16.80;70.20;;;;;;4997639;28;20113;-68
2021/05/16 07:13:39;;;;;;;6.20;2.10;;;16.80;70.30;;;;;;4992739;28;20057;-68
2021/05/16 07:16:05;;;;;;;6.35;2.17;;;16.80;70.30;;;;;;5011049;28;20500;-70
2021/05/16 07:18:31;;;;;;;6.72;2.10;;;16.70;70.30;;;;;;4993586;28;20058;-68
2021/05/16 07:20:56;;;;;;;8.60;2.20;;;16.70;70.30;;;;;;4999290;28;20489;-69
2021/05/16 07:23:22;;;;;;;7.68;2.50;;;16.70;70.00;;;;;;4992978;28;20048;-68
2021/05/16 07:25:47;;;;;;;7.60;2.00;;;16.80;70.20;;;;;;4996248;28;20082;-68
2021/05/16 07:28:13;;;;;;;8.20;2.33;;;16.70;70.10;;;;;;4995882;28;20515;-68
2021/05/16 07:30:39;;;;;;;5.22;2.00;;;16.80;70.10;;;;;;5019242;28;20395;-69
2021/05/16 07:33:05;;;;;;;6.03;2.00;;;16.70;70.00;;;;;;4997204;28;20421;-69
2021/05/16 07:35:30;;;;;;;5.90;2.00;;;16.70;70.10;;;;;;5013660;28;20021;-69
2021/05/16 07:37:56;;;;;;;8.27;2.22;;;16.70;70.20;;;;;;5033299;28;20029;-69
2021/05/16 07:40:21;;;;;;;8.68;2.40;;;16.80;70.10;;;;;;5033339;28;20017;-71
2021/05/16 07:42:49;;;;;;;6.38;2.42;;;16.80;70.00;;;;;;5016326;28;20096;-69
2021/05/16 07:45:16;;;;;;;6.72;1.98;;;16.80;69.80;;;;;;4996900;28;20056;-69
2021/05/16 07:47:41;;;;;;;9.27;2.33;;;16.90;70.00;;;;;;4997521;28;20060;-68
2021/05/16 07:50:09;;;;;;;14.38;2.95;;;16.90;69.90;;;;;;5015182;28;20058;-67
2021/05/16 07:52:34;;;;;;;12.85;2.63;;;17.00;70.00;;;;;;4996595;28;20041;-68
2021/05/16 07:55:00;;;;;;;9.90;2.17;;;17.00;69.60;;;;;;5013261;28;20030;-68
2021/05/16 07:57:25;;;;;;;11.88;2.10;;;17.10;69.70;;;;;;5017349;28;20079;-67
2021/05/16 07:59:51;;;;;;;11.77;3.35;;;17.20;69.40;;;;;;5014111;28;20205;-73
2021/05/16 08:02:17;;;;;;;13.45;2.90;;;17.30;69.00;;;;;;5012158;28;20014;-69
2021/05/16 08:04:43;;;;;;;10.93;4.43;;;17.30;69.50;;;;;;4992243;28;20447;-68
2021/05/16 08:07:09;;;;;;;12.23;3.20;;;17.20;68.50;;;;;;5004844;28;20153;-68
2021/05/16 08:09:35;;;;;;;12.38;4.72;;;17.30;69.10;;;;;;5031001;28;20484;-69
2021/05/16 08:12:00;;;;;;;137.18;69.53;;;17.40;68.30;;;;;;5027046;28;20038;-72
2021/05/16 08:14:28;;;;;;;209.38;111.82;;;17.40;68.20;;;;;;4996955;28;20077;-73
2021/05/16 08:16:54;;;;;;;178.68;93.00;;;17.60;69.00;;;;;;5014355;28;20045;-73
2021/05/16 08:19:20;;;;;;;143.80;78.68;;;17.60;67.40;;;;;;5014756;28;20101;-74
2021/05/16 08:21:46;;;;;;;142.68;76.72;;;17.60;67.40;;;;;;4997030;28;20581;-72
2021/05/16 08:24:14;;;;;;;154.55;81.15;;;17.90;66.80;;;;;;5009781;28;20579;-75
2021/05/16 08:26:40;;;;;;;149.63;82.40;;;18.30;65.60;;;;;;5008918;28;20056;-76
2021/05/16 08:29:05;;;;;;;151.48;81.18;;;18.50;64.50;;;;;;5014310;28;20474;-75
2021/05/16 08:31:35;;;;;;;152.05;83.20;;;18.70;63.90;;;;;;4997019;28;20021;-74
2021/05/16 08:34:05;;;;;;;138.40;77.30;;;18.90;63.00;;;;;;4996389;28;20025;-75
2021/05/16 08:36:35;;;;;;;131.88;73.55;;;19.10;62.20;;;;;;4995370;28;20557;-73
2021/05/16 08:39:03;;;;;;;137.18;73.78;;;19.30;61.70;;;;;;4996341;28;20509;-72
2021/05/16 08:41:28;;;;;;;133.95;72.35;;;19.40;61.70;;;;;;5017582;28;20112;-70
2021/05/16 08:43:54;;;;;;;144.63;76.13;;;19.50;61.50;;;;;;5013291;28;20104;-69
2021/05/16 08:46:21;;;;;;;113.63;61.65;;;19.30;61.10;;;;;;4997200;28;20080;-69
2021/05/16 08:48:46;;;;;;;119.35;62.65;;;19.10;61.80;;;;;;5010694;28;20386;-68
2021/05/16 08:51:15;;;;;;;120.68;67.38;;;19.10;62.00;;;;;;5024809;28;20032;-67
2021/05/16 08:53:41;;;;;;;131.60;66.55;;;19.00;62.20;;;;;;5006779;28;20320;-69
2021/05/16 08:56:07;;;;;;;119.53;67.75;;;18.90;62.30;;;;;;5017914;28;20030;-69
2021/05/16 08:58:34;;;;;;;126.88;67.72;;;18.80;62.60;;;;;;5012235;28;20014;-68
2021/05/16 09:00:59;;;;;;;114.22;60.25;;;18.80;62.60;;;;;;5013957;28;20481;-68
2021/05/16 09:03:25;;;;;;;114.47;62.00;;;19.00;62.50;;;;;;5012355;28;20029;-68
2021/05/16 09:05:54;;;;;;;100.70;55.88;;;19.20;62.60;;;;;;5013310;28;20029;-67
2021/05/16 09:08:25;;;;;;;118.15;60.13;;;19.10;62.00;;;;;;4993127;28;20492;-67
2021/05/16 09:10:59;;;;;;;111.30;59.38;;;19.10;61.70;;;;;;5001522;28;20030;-71
2021/05/16 09:13:26;;;;;;;104.75;56.30;;;19.10;61.80;;;;;;5013019;28;20124;-67
2021/05/16 09:16:17;;;;;;;103.53;54.72;;;19.10;62.10;;;;;;5010356;28;20463;-68
2021/05/16 09:18:51;;;;;;;96.35;51.22;;;19.00;62.10;;;;;;5002329;28;20106;-70
2021/05/16 09:21:34;;;;;;;101.90;53.88;;;18.90;62.40;;;;;;4993802;28;20029;-74
2021/05/16 09:24:00;;;;;;;103.38;54.10;;;18.80;62.60;;;;;;5013064;28;20500;-69
2021/05/16 09:26:26;;;;;;;93.82;51.50;;;18.80;62.40;;;;;;5004103;28;20032;-69
2021/05/16 09:28:53;;;;;;;93.00;50.67;;;18.80;63.10;;;;;;4993886;28;20077;-71
2021/05/16 09:31:35;;;;;;;91.38;48.97;;;18.80;62.80;;;;;;4993873;28;20026;-69
2021/05/16 09:34:01;;;;;;;93.38;48.42;;;18.80;62.80;;;;;;5009855;28;20101;-70
2021/05/16 09:36:36;;;;;;;86.03;46.42;;;18.80;62.80;;;;;;5012839;28;20481;-69
2021/05/16 09:39:26;;;;;;;84.78;46.15;;;18.80;62.80;;;;;;5016126;28;20026;-69
2021/05/16 09:41:55;;;;;;;;;;;18.90;62.90;;;;;;4996011;28;20014;-69
2021/05/16 09:44:51;;;;;;;83.68;43.83;;;18.90;62.70;;;;;;4994626;28;19956;-71
2021/05/16 09:47:20;;;;;;;79.00;42.10;;;18.90;62.40;;;;;;4995550;28;20065;-69
2021/05/16 09:50:00;;;;;;;97.60;45.20;;;18.90;62.00;;;;;;4994483;28;20029;-69
2021/05/16 09:52:34;;;;;;;76.82;42.53;;;19.00;62.00;;;;;;4995616;28;20053;-70
2021/05/16 09:55:13;;;;;;;83.72;43.03;;;19.00;62.40;;;;;;4994864;28;20022;-70
2021/05/16 09:57:41;;;;;;;73.95;39.88;;;19.00;61.90;;;;;;4994197;28;20025;-69
2021/05/16 10:00:09;;;;;;;77.82;39.83;;;19.00;61.80;;;;;;4995372;28;20493;-69
2021/05/16 10:02:36;;;;;;;70.75;38.28;;;19.00;61.70;;;;;;4994711;28;20030;-70
2021/05/16 10:05:03;;;;;;;64.85;36.10;;;19.00;61.70;;;;;;4995886;28;20032;-70
2021/05/16 10:07:30;;;;;;;70.50;38.08;;;19.00;61.50;;;;;;5011840;28;20053;-68
2021/05/16 10:09:57;;;;;;;72.50;38.33;;;19.00;61.60;;;;;;5021541;28;20044;-69
2021/05/16 10:12:23;;;;;;;68.10;37.83;;;19.00;61.40;;;;;;4996524;28;20045;-72
2021/05/16 10:14:57;;;;;;;67.18;35.65;;;19.10;61.40;;;;;;5008393;28;20401;-69
2021/05/16 10:17:23;;;;;;;64.50;34.42;;;19.10;61.40;;;;;;5019402;28;20084;-69
2021/05/16 10:19:50;;;;;;;62.67;35.00;;;19.00;61.30;;;;;;5007352;28;20730;-70
2021/05/16 10:22:17;;;;;;;63.97;32.95;;;19.10;61.30;;;;;;5024882;28;20473;-69
2021/05/16 10:24:46;;;;;;;62.08;33.70;;;19.10;61.30;;;;;;5013031;28;20108;-69
2021/05/16 10:27:30;;;;;;;60.17;32.85;;;19.10;61.20;;;;;;5006739;28;20030;-70
2021/05/16 10:30:01;;;;;;;58.35;31.23;;;19.10;61.20;;;;;;4995059;28;20026;-70
2021/05/16 10:32:33;;;;;;;57.92;31.52;;;19.10;61.10;;;;;;4994824;28;20523;-69
2021/05/16 10:34:59;;;;;;;;;;;19.10;61.10;;;;;;4994525;28;20452;-69
2021/05/16 10:37:41;;;;;;;56.65;31.55;;;19.10;61.10;;;;;;5011648;28;19928;-70
2021/05/16 10:40:12;;;;;;;64.20;32.00;;;19.10;61.10;;;;;;5020550;28;20048;-68
2021/05/16 10:42:43;;;;;;;57.08;30.27;;;19.10;61.00;;;;;;5003955;28;20520;-72
2021/05/16 10:45:25;;;;;;;60.33;29.02;;;19.00;61.20;;;;;;5022394;28;20101;-68
2021/05/16 10:47:53;;;;;;;60.75;29.48;;;18.90;61.20;;;;;;5014648;28;20029;-69
2021/05/16 10:50:19;;;;;;;61.90;29.48;;;18.90;61.50;;;;;;4996847;28;20076;-68
2021/05/16 10:53:01;;;;;;;55.63;29.20;;;18.90;61.40;;;;;;5011549;28;20496;-69
2021/05/16 10:55:40;;;;;;;48.42;25.65;;;19.00;61.30;;;;;;4995782;28;20026;-69
2021/05/16 10:58:07;;;;;;;50.15;26.40;;;19.00;61.30;;;;;;5029571;28;20013;-69
2021/05/16 11:00:43;;;;;;;43.95;25.10;;;19.10;61.20;;;;;;5030300;28;20052;-69
2021/05/16 11:03:13;;;;;;;44.40;24.92;;;19.20;60.90;;;;;;5010047;28;20033;-69
2021/05/16 11:08:16;;;;;;;46.85;24.02;;;19.30;60.40;;;;;;5011652;28;20128;-68
2021/05/16 11:10:50;;;;;;;46.85;25.85;;;19.50;59.80;;;;;;5016791;28;20499;-70
2021/05/16 11:13:27;;;;;;;46.15;24.77;;;19.70;59.00;;;;;;5012431;28;20038;-69
2021/05/16 11:16:06;;;;;;;45.55;23.55;;;19.90;58.70;;;;;;5012549;28;20017;-69
2021/05/16 11:18:35;;;;;;;42.97;23.17;;;20.10;58.30;;;;;;5030241;28;20038;-69
2021/05/16 11:21:07;;;;;;;40.33;23.13;;;20.20;57.80;;;;;;5030263;28;20022;-67
2021/05/16 11:23:38;;;;;;;42.97;23.15;;;20.30;57.30;;;;;;5026498;28;20028;-68
2021/05/16 11:26:06;;;;;;;38.33;21.60;;;20.30;57.00;;;;;;5011620;28;20031;-68
2021/05/16 11:28:34;;;;;;;40.38;21.73;;;20.40;56.80;;;;;;4994168;28;20397;-68
2021/05/16 11:31:07;;;;;;;39.45;21.55;;;20.40;56.80;;;;;;4994244;28;20026;-67
2021/05/16 11:33:38;;;;;;;40.10;22.02;;;20.40;56.50;;;;;;5016848;28;20021;-69
2021/05/16 11:36:09;;;;;;;37.00;20.13;;;20.40;56.50;;;;;;5028671;28;20017;-68
2021/05/16 11:38:38;;;;;;;38.00;19.80;;;20.40;56.70;;;;;;5025312;28;20076;-69
2021/05/16 11:41:04;;;;;;;35.33;19.30;;;20.40;56.80;;;;;;5017226;28;20504;-68
2021/05/16 11:43:32;;;;;;;37.08;19.70;;;20.30;57.20;;;;;;5009651;28;20026;-69
2021/05/16 11:45:59;;;;;;;38.38;19.08;;;20.10;57.30;;;;;;5010803;28;20684;-70
2021/05/16 11:48:35;;;;;;;32.75;17.50;;;20.00;57.50;;;;;;4993095;28;20036;-69
2021/05/16 11:51:14;;;;;;;34.05;19.00;;;20.00;57.90;;;;;;5011143;28;20022;-70
2021/05/16 11:53:41;;;;;;;36.90;19.13;;;19.90;58.20;;;;;;4989887;28;20604;-69
2021/05/16 11:56:14;;;;;;;33.80;17.60;;;19.90;58.40;;;;;;5009813;28;20029;-69
2021/05/16 11:58:51;;;;;;;30.73;17.00;;;19.90;58.60;;;;;;5009429;28;20010;-69
2021/05/16 12:01:16;;;;;;;29.10;16.08;;;20.00;58.40;;;;;;5010479;28;20036;-69
2021/05/16 12:03:57;;;;;;;28.48;15.70;;;19.90;58.30;;;;;;5012413;28;20025;-70
2021/05/16 12:06:23;;;;;;;26.90;14.30;;;19.80;58.50;;;;;;5013402;28;20030;-70
2021/05/16 12:09:05;;;;;;;26.17;14.27;;;19.80;58.60;;;;;;4993733;28;20033;-69
2021/05/16 12:11:35;;;;;;;34.05;16.08;;;19.70;58.60;;;;;;5018781;28;20029;-73
2021/05/16 12:14:04;;;;;;;33.60;16.25;;;19.70;58.80;;;;;;5031573;28;20435;-69
2021/05/16 12:16:29;;;;;;;38.30;17.35;;;19.70;58.70;;;;;;5015295;28;20079;-70
2021/05/16 12:18:55;;;;;;;36.92;18.02;;;19.80;58.90;;;;;;5015679;28;20021;-70
2021/05/16 12:21:22;;;;;;;36.78;18.13;;;19.80;58.80;;;;;;5027529;28;20022;-69
2021/05/16 12:23:59;;;;;;;38.80;19.58;;;19.80;59.20;;;;;;5022100;28;20100;-70
2021/05/16 12:26:27;;;;;;;40.97;18.20;;;19.80;58.60;;;;;;5010839;28;20025;-69
2021/05/16 12:28:54;;;;;;;37.60;16.27;;;19.80;58.80;;;;;;5014781;28;20021;-69
2021/05/16 12:31:20;;;;;;;32.70;16.48;;;19.70;58.70;;;;;;5013909;28;20025;-70
2021/05/16 12:33:51;;;;;;;37.60;17.92;;;19.70;58.90;;;;;;4987659;28;20027;-69
2021/05/16 12:36:16;;;;;;;37.47;15.52;;;19.70;58.90;;;;;;4994884;28;20030;-70
2021/05/16 12:38:44;;;;;;;34.20;14.82;;;19.70;58.90;;;;;;4978631;28;20030;-69
2021/05/16 12:41:25;;;;;;;30.70;13.68;;;19.70;58.70;;;;;;4994412;28;20034;-71
2021/05/16 12:44:10;;;;;;;;;;;19.70;58.70;;;;;;4993992;28;20061;-69
2021/05/16 12:46:44;;;;;;;24.38;12.88;;;19.60;58.90;;;;;;4976559;28;19916;-68